createdAt,value
2018-01-21T00:00:08.127Z,2.3
2018-01-21T00:01:07.928Z,2.31
2018-01-21T00:02:08.141Z,2.32
2018-01-21T00:03:07.936Z,2.31
2018-01-21T00:04:08.038Z,2.29
2018-01-21T00:05:08.014Z,2.27
2018-01-21T00:06:08.764Z,2.24
2018-01-21T00:07:07.986Z,2.26
2018-01-21T00:08:08.349Z,2.28
2018-01-21T00:09:07.936Z,2.23
2018-01-21T00:10:07.969Z,2.24
2018-01-21T00:11:07.968Z,2.26
2018-01-21T00:12:07.958Z,2.23
2018-01-21T00:13:08.106Z,2.25
2018-01-21T00:14:08.012Z,2.24
2018-01-21T00:15:08.043Z,2.26
2018-01-21T00:16:07.962Z,2.24
2018-01-21T00:17:08.198Z,2.25
2018-01-21T00:18:08.079Z,2.27
2018-01-21T00:19:08.025Z,2.26
2018-01-21T00:20:08.310Z,2.29
2018-01-21T00:21:08.000Z,2.29
2018-01-21T00:22:07.966Z,2.31
2018-01-21T00:23:08.003Z,2.3
2018-01-21T00:24:08.626Z,2.32
2018-01-21T00:25:08.768Z,2.27
2018-01-21T00:26:08.006Z,2.25
2018-01-21T00:27:07.971Z,2.25
2018-01-21T00:28:08.056Z,2.27
2018-01-21T00:29:08.317Z,2.26
2018-01-21T00:30:08.212Z,2.29
2018-01-21T00:31:08.005Z,2.29
2018-01-21T00:32:08.082Z,2.27
2018-01-21T00:34:09.018Z,2.23
2018-01-21T00:35:08.030Z,2.24
2018-01-21T00:36:07.966Z,2.26
2018-01-21T00:39:10.041Z,2.24
2018-01-21T00:40:08.091Z,2.23
2018-01-21T00:41:08.349Z,2.21
2018-01-21T00:42:08.156Z,2.23
2018-01-21T00:43:08.161Z,2.23
2018-01-21T00:44:08.010Z,2.23
2018-01-21T00:45:08.003Z,2.23
2018-01-21T00:46:08.098Z,2.24
2018-01-21T00:47:08.035Z,2.2
2018-01-21T00:48:08.000Z,2.22
2018-01-21T00:49:08.036Z,2.2
2018-01-21T00:50:08.028Z,2.18
2018-01-21T00:51:08.087Z,2.19
2018-01-21T00:52:08.033Z,2.2
2018-01-21T00:53:08.011Z,2.19
2018-01-21T00:54:08.054Z,2.2
2018-01-21T00:55:08.088Z,2.21
2018-01-21T00:56:08.029Z,2.23
2018-01-21T00:57:08.025Z,2.24
2018-01-21T01:00:08.080Z,2.23
2018-01-21T01:01:08.077Z,2.23
2018-01-21T01:02:08.051Z,2.23
2018-01-21T01:04:08.130Z,2.26
2018-01-21T01:05:08.047Z,2.25
2018-01-21T01:06:08.063Z,2.23
2018-01-21T01:07:08.058Z,2.21
2018-01-21T01:08:08.052Z,2.22
2018-01-21T01:09:08.133Z,2.23
2018-01-21T01:10:08.061Z,2.26
2018-01-21T01:11:08.095Z,2.27
2018-01-21T01:12:08.117Z,2.28
2018-01-21T01:13:08.057Z,2.23
2018-01-21T01:14:08.070Z,2.24
2018-01-21T01:15:08.065Z,2.25
2018-01-21T01:16:08.043Z,2.26
2018-01-21T01:17:08.066Z,2.26
2018-01-21T01:18:08.100Z,2.24
2018-01-21T01:19:08.084Z,2.2
2018-01-21T01:20:08.053Z,2.2
2018-01-21T01:21:08.054Z,2.21
2018-01-21T01:22:08.071Z,2.18
2018-01-21T01:23:08.104Z,2.19
2018-01-21T01:24:08.140Z,2.18
2018-01-21T01:25:08.183Z,2.19
2018-01-21T01:26:08.091Z,2.18
2018-01-21T01:27:08.084Z,2.16
2018-01-21T01:28:08.123Z,2.15
2018-01-21T01:29:08.133Z,2.14
2018-01-21T01:30:08.168Z,2.13
2018-01-21T01:31:08.237Z,2.12
2018-01-21T01:32:08.113Z,2.09
2018-01-21T01:33:08.196Z,2.09
2018-01-21T01:34:08.154Z,2.1
2018-01-21T01:35:08.199Z,2.1
2018-01-21T01:36:08.091Z,2.13
2018-01-21T01:37:08.087Z,2.14
2018-01-21T01:38:08.128Z,2.17
2018-01-21T01:39:08.111Z,2.16
2018-01-21T01:40:08.151Z,2.16
2018-01-21T01:41:08.076Z,2.15
2018-01-21T01:42:08.076Z,2.16
2018-01-21T01:43:08.104Z,2.16
2018-01-21T01:44:08.157Z,2.17
2018-01-21T01:45:08.235Z,2.16
2018-01-21T01:46:08.111Z,2.16
2018-01-21T01:47:08.098Z,2.16
2018-01-21T01:48:08.149Z,2.18
2018-01-21T01:49:08.156Z,2.19
2018-01-21T01:50:08.162Z,2.17
2018-01-21T01:51:08.103Z,2.18
2018-01-21T01:52:08.073Z,2.21
2018-01-21T01:53:08.399Z,2.2
2018-01-21T01:54:08.147Z,2.18
2018-01-21T01:55:08.071Z,2.2
2018-01-21T01:56:08.078Z,2.21
2018-01-21T01:57:08.158Z,2.2
2018-01-21T01:58:08.104Z,2.17
2018-01-21T01:59:08.211Z,2.17
2018-01-21T02:00:08.204Z,2.17
2018-01-21T02:01:08.842Z,2.17
2018-01-21T02:02:08.191Z,2.17
2018-01-21T02:03:08.486Z,2.16
2018-01-21T02:04:08.163Z,2.19
2018-01-21T02:05:08.153Z,2.18
2018-01-21T02:06:08.104Z,2.2
2018-01-21T02:07:08.138Z,2.2
2018-01-21T02:08:08.173Z,2.2
2018-01-21T02:09:08.102Z,2.21
2018-01-21T02:10:08.175Z,2.22
2018-01-21T02:11:08.141Z,2.22
2018-01-21T02:15:08.978Z,2.21
2018-01-21T02:16:08.158Z,2.19
2018-01-21T02:18:36.666Z,2.17
2018-01-21T02:19:08.140Z,2.18
2018-01-21T02:20:08.189Z,2.21
2018-01-21T02:21:08.132Z,2.2
2018-01-21T02:22:08.167Z,2.19
2018-01-21T02:23:08.153Z,2.2
2018-01-21T02:24:08.145Z,2.21
2018-01-21T02:25:08.121Z,2.21
2018-01-21T02:26:08.194Z,2.22
2018-01-21T02:27:08.141Z,2.23
2018-01-21T02:28:08.206Z,2.24
2018-01-21T02:29:08.163Z,2.27
2018-01-21T02:30:08.249Z,2.28
2018-01-21T02:31:08.193Z,2.28
2018-01-21T02:32:08.334Z,2.3
2018-01-21T02:33:08.247Z,2.3
2018-01-21T02:34:08.271Z,2.3
2018-01-21T02:35:08.142Z,2.31
2018-01-21T02:36:08.157Z,2.31
2018-01-21T02:37:08.165Z,2.33
2018-01-21T02:38:08.213Z,2.36
2018-01-21T02:39:08.320Z,2.36
2018-01-21T02:40:08.209Z,2.35
2018-01-21T02:41:08.255Z,2.33
2018-01-21T02:42:08.325Z,2.34
2018-01-21T02:43:08.197Z,2.34
2018-01-21T02:44:08.218Z,2.34
2018-01-21T02:46:08.395Z,2.33
2018-01-21T02:47:08.198Z,2.33
2018-01-21T02:48:08.143Z,2.37
2018-01-21T02:49:08.171Z,2.36
2018-01-21T02:50:08.266Z,2.34
2018-01-21T02:51:08.230Z,2.34
2018-01-21T02:52:08.357Z,2.34
2018-01-21T02:53:08.190Z,2.35
2018-01-21T02:54:08.192Z,2.33
2018-01-21T02:55:08.278Z,2.32
2018-01-21T02:56:08.193Z,2.32
2018-01-21T02:57:08.250Z,2.34
2018-01-21T02:58:08.213Z,2.33
2018-01-21T02:59:08.220Z,2.34
2018-01-21T03:00:08.479Z,2.31
2018-01-21T03:01:08.254Z,2.29
2018-01-21T03:02:09.311Z,2.29
2018-01-21T03:03:08.247Z,2.3
2018-01-21T03:04:08.211Z,2.28
2018-01-21T03:05:08.283Z,2.26
2018-01-21T03:06:08.250Z,2.24
2018-01-21T03:07:08.221Z,2.21
2018-01-21T03:08:08.272Z,2.22
2018-01-21T03:09:08.220Z,2.25
2018-01-21T03:10:08.372Z,2.24
2018-01-21T03:11:08.295Z,2.23
2018-01-21T03:12:08.355Z,2.25
2018-01-21T03:13:08.263Z,2.25
2018-01-21T03:14:08.262Z,2.21
2018-01-21T03:21:08.261Z,2.23
2018-01-21T03:22:08.292Z,2.21
2018-01-21T03:23:08.796Z,2.22
2018-01-21T03:24:08.292Z,2.23
2018-01-21T03:25:08.276Z,2.26
2018-01-21T03:26:08.292Z,2.27
2018-01-21T03:27:08.327Z,2.26
2018-01-21T03:28:08.297Z,2.28
2018-01-21T03:29:08.300Z,2.28
2018-01-21T03:30:08.333Z,2.27
2018-01-21T03:31:08.284Z,2.29
2018-01-21T03:32:08.289Z,2.29
2018-01-21T03:33:08.295Z,2.29
2018-01-21T03:34:08.406Z,2.32
2018-01-21T03:35:08.278Z,2.31
2018-01-21T03:36:08.274Z,2.31
2018-01-21T03:37:08.281Z,2.31
2018-01-21T03:38:08.320Z,2.32
2018-01-21T03:39:08.386Z,2.34
2018-01-21T03:40:08.289Z,2.35
2018-01-21T03:42:08.321Z,2.36
2018-01-21T03:43:08.444Z,2.38
2018-01-21T03:44:08.898Z,2.37
2018-01-21T03:45:08.286Z,2.37
2018-01-21T03:46:08.299Z,2.38
2018-01-21T03:47:08.366Z,2.37
2018-01-21T03:48:08.258Z,2.36
2018-01-21T03:49:08.600Z,2.36
2018-01-21T03:50:08.321Z,2.36
2018-01-21T03:51:08.397Z,2.37
2018-01-21T03:52:08.295Z,2.37
2018-01-21T03:53:08.358Z,2.39
2018-01-21T03:54:08.341Z,2.39
2018-01-21T03:55:08.497Z,2.4
2018-01-21T03:56:14.726Z,2.4
2018-01-21T03:57:08.299Z,2.41
2018-01-21T03:59:08.786Z,2.44
2018-01-21T04:00:08.460Z,2.43
2018-01-21T04:01:08.360Z,2.42
2018-01-21T04:02:08.365Z,2.43
2018-01-21T04:03:08.449Z,2.44
2018-01-21T04:04:08.452Z,2.45
2018-01-21T04:05:08.337Z,2.44
2018-01-21T04:06:08.386Z,2.44
2018-01-21T04:07:08.364Z,2.43
2018-01-21T04:08:08.426Z,2.43
2018-01-21T04:09:08.360Z,2.41
2018-01-21T04:10:12.126Z,2.41
2018-01-21T04:11:08.391Z,2.41
2018-01-21T04:12:08.468Z,2.42
2018-01-21T04:13:08.444Z,2.41
2018-01-21T04:14:08.406Z,2.42
2018-01-21T04:15:08.354Z,2.43
2018-01-21T04:16:08.361Z,2.42
2018-01-21T04:17:08.371Z,2.41
2018-01-21T04:18:08.493Z,2.41
2018-01-21T04:19:08.416Z,2.42
2018-01-21T04:20:08.354Z,2.41
2018-01-21T04:21:08.394Z,2.4
2018-01-21T04:22:08.381Z,2.4
2018-01-21T04:23:08.424Z,2.4
2018-01-21T04:24:08.404Z,2.4
2018-01-21T04:25:08.393Z,2.41
2018-01-21T04:26:08.431Z,2.4
2018-01-21T04:27:08.374Z,2.41
2018-01-21T04:28:08.480Z,2.39
2018-01-21T04:29:08.424Z,2.38
2018-01-21T04:30:08.442Z,2.38
2018-01-21T04:31:08.432Z,2.38
2018-01-21T04:32:08.422Z,2.39
2018-01-21T04:33:08.439Z,2.39
2018-01-21T04:34:08.427Z,2.4
2018-01-21T04:35:08.402Z,2.4
2018-01-21T04:36:08.457Z,2.4
2018-01-21T04:37:08.430Z,2.4
2018-01-21T04:38:08.428Z,2.39
2018-01-21T04:39:08.412Z,2.4
2018-01-21T04:40:08.423Z,2.39
2018-01-21T04:41:08.422Z,2.4
2018-01-21T04:42:08.453Z,2.39
2018-01-21T04:43:08.742Z,2.4
2018-01-21T04:44:08.399Z,2.41
2018-01-21T04:45:08.497Z,2.41
2018-01-21T04:46:08.489Z,2.4
2018-01-21T04:47:08.472Z,2.43
2018-01-21T04:48:08.454Z,2.42
2018-01-21T04:49:08.403Z,2.43
2018-01-21T04:50:08.420Z,2.42
2018-01-21T04:51:08.425Z,2.41
2018-01-21T04:52:08.508Z,2.41
2018-01-21T04:53:08.446Z,2.41
2018-01-21T04:54:08.409Z,2.41
2018-01-21T04:57:08.441Z,2.43
2018-01-21T04:58:08.440Z,2.42
2018-01-21T04:59:08.474Z,2.44
2018-01-21T05:00:08.487Z,2.42
2018-01-21T05:01:07.489Z,2.42
2018-01-21T05:02:07.506Z,2.42
2018-01-21T05:03:07.434Z,2.41
2018-01-21T05:04:07.550Z,2.43
2018-01-21T05:05:08.212Z,2.41
2018-01-21T05:06:07.500Z,2.41
2018-01-21T05:07:07.452Z,2.41
2018-01-21T05:08:07.481Z,2.4
2018-01-21T05:09:07.569Z,2.41
2018-01-21T05:10:07.424Z,2.41
2018-01-21T05:11:07.443Z,2.4
2018-01-21T05:12:07.523Z,2.39
2018-01-21T05:13:07.513Z,2.39
2018-01-21T05:14:07.479Z,2.4
2018-01-21T05:15:08.153Z,2.41
2018-01-21T05:16:07.444Z,2.39
2018-01-21T05:17:08.113Z,2.4
2018-01-21T05:18:07.512Z,2.39
2018-01-21T05:19:07.609Z,2.38
2018-01-21T05:20:07.481Z,2.4
2018-01-21T05:21:07.502Z,2.41
2018-01-21T05:22:07.469Z,2.42
2018-01-21T05:23:07.576Z,2.4
2018-01-21T05:24:07.431Z,2.41
2018-01-21T05:25:07.522Z,2.39
2018-01-21T05:26:07.490Z,2.41
2018-01-21T05:27:07.499Z,2.41
2018-01-21T05:28:07.472Z,2.4
2018-01-21T05:29:07.477Z,2.4
2018-01-21T05:30:07.581Z,2.41
2018-01-21T05:31:08.640Z,2.4
2018-01-21T05:32:07.477Z,2.4
2018-01-21T05:33:07.482Z,2.41
2018-01-21T05:34:07.472Z,2.41
2018-01-21T05:35:07.501Z,2.41
2018-01-21T05:36:07.616Z,2.4
2018-01-21T05:37:07.577Z,2.38
2018-01-21T05:38:07.748Z,2.39
2018-01-21T05:39:07.663Z,2.4
2018-01-21T05:40:07.545Z,2.4
2018-01-21T05:41:07.506Z,2.41
2018-01-21T05:42:07.831Z,2.41
2018-01-21T05:43:07.500Z,2.4
2018-01-21T05:44:08.744Z,2.4
2018-01-21T05:45:07.552Z,2.4
2018-01-21T05:46:07.580Z,2.41
2018-01-21T05:47:07.610Z,2.42
2018-01-21T05:48:07.502Z,2.41
2018-01-21T05:52:07.495Z,2.47
2018-01-21T05:53:07.573Z,2.47
2018-01-21T05:54:07.521Z,2.46
2018-01-21T05:55:07.483Z,2.47
2018-01-21T05:56:08.167Z,2.48
2018-01-21T05:57:08.137Z,2.48
2018-01-21T05:58:07.502Z,2.47
2018-01-21T05:59:07.680Z,2.47
2018-01-21T06:01:18.128Z,2.49
2018-01-21T06:02:08.028Z,2.48
2018-01-21T06:03:08.057Z,2.47
2018-01-21T06:04:08.163Z,2.47
2018-01-21T06:05:08.093Z,2.46
2018-01-21T06:06:08.021Z,2.47
2018-01-21T06:07:08.801Z,2.46
2018-01-21T06:08:08.043Z,2.46
2018-01-21T06:09:08.059Z,2.48
2018-01-21T06:10:08.570Z,2.46
2018-01-21T06:11:08.019Z,2.47
2018-01-21T06:12:08.159Z,2.46
2018-01-21T06:13:08.026Z,2.46
2018-01-21T06:14:08.091Z,2.48
2018-01-21T06:15:08.075Z,2.48
2018-01-21T06:16:08.080Z,2.46
2018-01-21T06:17:08.269Z,2.45
2018-01-21T06:18:08.054Z,2.46
2018-01-21T06:19:08.090Z,2.46
2018-01-21T06:20:08.175Z,2.47
2018-01-21T06:21:08.051Z,2.46
2018-01-21T06:22:08.075Z,2.47
2018-01-21T06:23:08.044Z,2.47
2018-01-21T06:24:08.043Z,2.46
2018-01-21T06:25:09.359Z,2.45
2018-01-21T06:26:08.049Z,2.44
2018-01-21T06:27:08.043Z,2.43
2018-01-21T06:28:08.755Z,2.43
2018-01-21T06:29:08.046Z,2.44
2018-01-21T06:30:08.156Z,2.45
2018-01-21T06:31:08.071Z,2.45
2018-01-21T06:32:08.168Z,2.44
2018-01-21T06:33:08.222Z,2.45
2018-01-21T06:34:08.081Z,2.45
2018-01-21T06:35:08.078Z,2.44
2018-01-21T06:36:08.096Z,2.44
2018-01-21T06:37:08.009Z,2.47
2018-01-21T06:38:08.202Z,2.47
2018-01-21T06:39:08.065Z,2.43
2018-01-21T06:40:08.111Z,2.44
2018-01-21T06:41:08.169Z,2.46
2018-01-21T06:42:08.098Z,2.45
2018-01-21T06:43:08.040Z,2.45
2018-01-21T06:44:08.143Z,2.45
2018-01-21T06:45:08.105Z,2.45
2018-01-21T06:46:08.041Z,2.46
2018-01-21T06:47:08.149Z,2.45
2018-01-21T06:48:08.316Z,2.46
2018-01-21T06:49:08.062Z,2.46
2018-01-21T06:50:08.043Z,2.46
2018-01-21T06:51:08.256Z,2.46
2018-01-21T06:55:08.063Z,2.45
2018-01-21T06:56:08.073Z,2.44
2018-01-21T06:57:08.060Z,2.44
2018-01-21T06:58:08.036Z,2.43
2018-01-21T06:59:08.027Z,2.44
2018-01-21T07:00:08.060Z,2.43
2018-01-21T07:01:08.106Z,2.44
2018-01-21T07:02:08.096Z,2.44
2018-01-21T07:03:08.098Z,2.46
2018-01-21T07:04:08.194Z,2.46
2018-01-21T07:05:08.085Z,2.46
2018-01-21T07:06:08.054Z,2.46
2018-01-21T07:07:08.059Z,2.47
2018-01-21T07:08:08.059Z,2.47
2018-01-21T07:09:08.092Z,2.48
2018-01-21T07:10:08.058Z,2.49
2018-01-21T07:11:08.035Z,2.48
2018-01-21T07:12:08.069Z,2.5
2018-01-21T07:13:08.036Z,2.52
2018-01-21T07:16:09.631Z,2.53
2018-01-21T07:17:08.070Z,2.54
2018-01-21T07:18:08.064Z,2.54
2018-01-21T07:20:37.109Z,2.53
2018-01-21T07:21:08.061Z,2.53
2018-01-21T07:22:08.061Z,2.53
2018-01-21T07:23:08.068Z,2.54
2018-01-21T07:24:08.064Z,2.54
2018-01-21T07:25:08.152Z,2.55
2018-01-21T07:26:08.096Z,2.55
2018-01-21T07:27:08.074Z,2.54
2018-01-21T07:28:08.116Z,2.54
2018-01-21T07:29:11.582Z,2.54
2018-01-21T07:30:08.453Z,2.55
2018-01-21T07:31:08.892Z,2.55
2018-01-21T07:32:08.145Z,2.55
2018-01-21T07:34:08.327Z,2.54
2018-01-21T07:35:08.268Z,2.54
2018-01-21T07:36:12.240Z,2.54
2018-01-21T07:37:08.099Z,2.53
2018-01-21T07:38:08.070Z,2.54
2018-01-21T07:40:08.114Z,2.55
2018-01-21T07:41:08.433Z,2.56
2018-01-21T07:42:08.067Z,2.56
2018-01-21T07:43:08.096Z,2.56
2018-01-21T07:44:08.070Z,2.56
2018-01-21T07:45:08.104Z,2.56
2018-01-21T07:46:08.121Z,2.56
2018-01-21T07:47:08.409Z,2.56
2018-01-21T07:48:08.146Z,2.57
2018-01-21T07:49:08.087Z,2.58
2018-01-21T07:50:08.111Z,2.6
2018-01-21T07:51:08.100Z,2.58
2018-01-21T07:52:08.102Z,2.6
2018-01-21T07:53:08.076Z,2.6
2018-01-21T07:54:08.117Z,2.6
2018-01-21T07:55:08.218Z,2.6
2018-01-21T07:56:08.112Z,2.59
2018-01-21T07:57:08.190Z,2.59
2018-01-21T07:58:08.071Z,2.58
2018-01-21T07:59:08.124Z,2.58
2018-01-21T08:00:08.903Z,2.59
2018-01-21T08:01:08.090Z,2.58
2018-01-21T08:02:08.235Z,2.59
2018-01-21T08:03:08.168Z,2.58
2018-01-21T08:04:08.139Z,2.58
2018-01-21T08:05:08.192Z,2.58
2018-01-21T08:06:08.210Z,2.57
2018-01-21T08:07:08.149Z,2.57
2018-01-21T08:08:08.223Z,2.56
2018-01-21T08:09:08.148Z,2.54
2018-01-21T08:10:08.152Z,2.54
2018-01-21T08:11:08.175Z,2.53
2018-01-21T08:12:08.139Z,2.5
2018-01-21T08:13:08.146Z,2.5
2018-01-21T08:14:08.179Z,2.49
2018-01-21T08:15:08.154Z,2.51
2018-01-21T08:16:08.155Z,2.51
2018-01-21T08:17:08.150Z,2.51
2018-01-21T08:18:08.157Z,2.51
2018-01-21T08:19:08.434Z,2.51
2018-01-21T08:20:08.141Z,2.52
2018-01-21T08:21:08.201Z,2.52
2018-01-21T08:23:14.199Z,2.54
2018-01-21T08:24:08.374Z,2.55
2018-01-21T08:25:08.190Z,2.55
2018-01-21T08:26:08.160Z,2.55
2018-01-21T08:27:08.143Z,2.55
2018-01-21T08:28:08.251Z,2.55
2018-01-21T08:29:08.161Z,2.57
2018-01-21T08:30:08.213Z,2.57
2018-01-21T08:31:08.154Z,2.59
2018-01-21T08:32:08.237Z,2.58
2018-01-21T08:33:08.192Z,2.58
2018-01-21T08:34:08.335Z,2.58
2018-01-21T08:35:08.225Z,2.58
2018-01-21T08:37:08.298Z,2.61
2018-01-21T08:38:08.266Z,2.62
2018-01-21T08:39:08.370Z,2.62
2018-01-21T08:40:08.245Z,2.62
2018-01-21T08:44:08.241Z,2.62
2018-01-21T08:45:08.204Z,2.62
2018-01-21T08:46:08.213Z,2.63
2018-01-21T08:47:08.227Z,2.63
2018-01-21T08:48:08.189Z,2.63
2018-01-21T08:49:08.232Z,2.64
2018-01-21T08:50:08.233Z,2.63
2018-01-21T08:51:08.319Z,2.65
2018-01-21T08:52:08.211Z,2.63
2018-01-21T08:53:08.213Z,2.63
2018-01-21T08:54:08.231Z,2.65
2018-01-21T08:55:08.217Z,2.66
2018-01-21T08:56:08.456Z,2.65
2018-01-21T08:57:08.513Z,2.65
2018-01-21T08:58:08.387Z,2.66
2018-01-21T08:59:08.659Z,2.66
2018-01-21T09:00:08.472Z,2.65
2018-01-21T09:01:08.230Z,2.65
2018-01-21T09:02:08.341Z,2.66
2018-01-21T09:03:08.244Z,2.66
2018-01-21T09:04:08.264Z,2.68
2018-01-21T09:05:08.271Z,2.68
2018-01-21T09:06:08.250Z,2.69
2018-01-21T09:07:08.278Z,2.68
2018-01-21T09:08:08.303Z,2.69
2018-01-21T09:09:08.282Z,2.69
2018-01-21T09:10:08.386Z,2.69
2018-01-21T09:11:08.269Z,2.69
2018-01-21T09:12:08.284Z,2.71
2018-01-21T09:13:08.280Z,2.72
2018-01-21T09:14:08.271Z,2.71
2018-01-21T09:15:08.286Z,2.71
2018-01-21T09:16:08.263Z,2.7
2018-01-21T09:17:08.257Z,2.71
2018-01-21T09:18:08.250Z,2.71
2018-01-21T09:19:08.256Z,2.71
2018-01-21T09:20:08.240Z,2.74
2018-01-21T09:21:08.264Z,2.75
2018-01-21T09:22:08.307Z,2.76
2018-01-21T09:23:08.271Z,2.77
2018-01-21T09:24:08.272Z,2.77
2018-01-21T09:25:08.261Z,2.76
2018-01-21T09:26:08.264Z,2.78
2018-01-21T09:27:08.293Z,2.77
2018-01-21T09:28:08.269Z,2.77
2018-01-21T09:29:08.248Z,2.78
2018-01-21T09:30:08.271Z,2.78
2018-01-21T09:31:08.262Z,2.78
2018-01-21T09:32:08.414Z,2.79
2018-01-21T09:33:08.291Z,2.8
2018-01-21T09:34:08.267Z,2.79
2018-01-21T09:35:08.267Z,2.81
2018-01-21T09:36:08.252Z,2.82
2018-01-21T09:37:08.244Z,2.82
2018-01-21T09:38:08.233Z,2.83
2018-01-21T09:39:08.256Z,2.83
2018-01-21T09:40:08.285Z,2.85
2018-01-21T09:41:08.272Z,2.86
2018-01-21T09:42:08.250Z,2.86
2018-01-21T09:43:08.308Z,2.87
2018-01-21T09:44:08.262Z,2.87
2018-01-21T09:45:08.400Z,2.88
2018-01-21T09:46:08.273Z,2.87
2018-01-21T09:47:08.257Z,2.87
2018-01-21T09:48:08.344Z,2.87
2018-01-21T09:49:08.289Z,2.87
2018-01-21T09:50:08.566Z,2.9
2018-01-21T09:51:08.288Z,2.91
2018-01-21T09:52:08.304Z,2.92
2018-01-21T09:53:08.281Z,2.96
2018-01-21T09:54:08.285Z,2.99
2018-01-21T09:55:08.428Z,2.99
2018-01-21T09:58:15.300Z,3.06
2018-01-21T09:59:08.322Z,3.09
2018-01-21T10:00:08.278Z,3.14
2018-01-21T10:01:08.293Z,3.19
2018-01-21T10:02:08.383Z,3.27
2018-01-21T10:03:08.286Z,3.31
2018-01-21T10:04:08.299Z,3.33
2018-01-21T10:05:08.331Z,3.37
2018-01-21T10:06:08.271Z,3.4
2018-01-21T10:07:08.295Z,3.42
2018-01-21T10:08:08.277Z,3.43
2018-01-21T10:09:08.301Z,3.45
2018-01-21T10:14:08.402Z,3.46
2018-01-21T10:15:08.368Z,3.46
2018-01-21T10:16:08.321Z,3.44
2018-01-21T10:17:08.289Z,3.45
2018-01-21T10:18:08.344Z,3.44
2018-01-21T10:19:08.391Z,3.45
2018-01-21T10:20:08.364Z,3.45
2018-01-21T10:21:08.275Z,3.46
2018-01-21T10:22:08.677Z,3.48
2018-01-21T10:23:08.274Z,3.49
2018-01-21T10:24:08.933Z,3.49
2018-01-21T10:25:08.275Z,3.48
2018-01-21T10:26:08.296Z,3.47
2018-01-21T10:27:08.260Z,3.47
2018-01-21T10:28:08.307Z,3.47
2018-01-21T10:29:08.292Z,3.48
2018-01-21T10:30:08.337Z,3.47
2018-01-21T10:31:08.295Z,3.48
2018-01-21T10:32:08.382Z,3.48
2018-01-21T10:33:08.367Z,3.52
2018-01-21T10:34:08.422Z,3.53
2018-01-21T10:35:08.367Z,3.56
2018-01-21T10:36:08.377Z,3.58
2018-01-21T10:37:08.382Z,3.65
2018-01-21T10:38:08.385Z,3.69
2018-01-21T10:39:08.379Z,3.74
2018-01-21T10:40:08.421Z,3.79
2018-01-21T10:41:08.392Z,3.84
2018-01-21T10:42:08.387Z,3.88
2018-01-21T10:43:08.481Z,3.92
2018-01-21T10:44:08.565Z,3.96
2018-01-21T10:45:08.355Z,4
2018-01-21T10:46:08.373Z,4.04
2018-01-21T10:47:08.522Z,4.08
2018-01-21T10:48:08.373Z,4.15
2018-01-21T10:49:08.421Z,4.2
2018-01-21T10:50:09.229Z,4.25
2018-01-21T10:51:09.039Z,4.23
2018-01-21T10:52:08.597Z,4.25
2018-01-21T10:53:08.373Z,4.24
2018-01-21T10:54:08.405Z,4.19
2018-01-21T10:55:08.430Z,4.17
2018-01-21T10:56:08.428Z,4.2
2018-01-21T10:57:08.363Z,4.24
2018-01-21T10:58:08.428Z,4.17
2018-01-21T10:59:08.605Z,4.14
2018-01-21T11:00:08.703Z,4.09
2018-01-21T11:01:08.434Z,4.07
2018-01-21T11:02:09.587Z,4.08
2018-01-21T11:03:07.534Z,4.09
2018-01-21T11:04:07.542Z,4.09
2018-01-21T11:05:07.488Z,4.11
2018-01-21T11:06:08.275Z,4.11
2018-01-21T11:07:08.599Z,4.09
2018-01-21T11:08:07.543Z,4.07
2018-01-21T11:09:07.477Z,4.09
2018-01-21T11:10:07.503Z,4.09
2018-01-21T11:11:07.750Z,4.07
2018-01-21T11:12:07.595Z,4.08
2018-01-21T11:13:08.530Z,4.08
2018-01-21T11:14:14.724Z,4.08
2018-01-21T11:15:07.488Z,4.09
2018-01-21T11:16:12.130Z,4.07
2018-01-21T11:17:07.790Z,4.07
2018-01-21T11:18:09.935Z,4.07
2018-01-21T11:19:07.535Z,4.07
2018-01-21T11:20:08.442Z,4.06
2018-01-21T11:21:15.162Z,4.06
2018-01-21T11:22:08.136Z,4.06
2018-01-21T11:23:10.038Z,4.09
2018-01-21T11:24:07.557Z,4.08
2018-01-21T11:25:08.508Z,4.06
2018-01-21T11:26:07.642Z,4.05
2018-01-21T11:27:07.452Z,4.05
2018-01-21T11:28:08.244Z,4.04
2018-01-21T11:29:07.484Z,4.06
2018-01-21T11:30:08.193Z,4.05
2018-01-21T11:31:07.496Z,4.05
2018-01-21T11:32:07.518Z,4.06
2018-01-21T11:33:08.301Z,4.06
2018-01-21T11:34:07.567Z,4.07
2018-01-21T11:35:07.488Z,4.08
2018-01-21T11:36:08.342Z,4.06
2018-01-21T11:37:07.608Z,4.06
2018-01-21T11:38:07.488Z,4.06
2018-01-21T11:39:07.493Z,4.07
2018-01-21T11:40:07.471Z,4.07
2018-01-21T11:41:07.538Z,4.06
2018-01-21T11:42:07.484Z,4.06
2018-01-21T11:45:16.795Z,4.05
2018-01-21T11:46:07.542Z,4.06
2018-01-21T11:47:10.740Z,4.05
2018-01-21T11:49:18.205Z,4.03
2018-01-21T11:50:07.478Z,4.03
2018-01-21T11:51:07.485Z,4.03
2018-01-21T11:52:08.154Z,4.02
2018-01-21T11:53:07.534Z,4.03
2018-01-21T11:54:08.025Z,4.04
2018-01-21T11:55:07.558Z,4.05
2018-01-21T11:56:07.708Z,4.07
2018-01-21T11:57:08.238Z,4.05
2018-01-21T11:58:08.708Z,4.04
2018-01-21T11:59:07.524Z,4.05
2018-01-21T12:00:07.575Z,4.05
2018-01-21T12:01:07.591Z,4.05
2018-01-21T12:02:08.154Z,4.05
2018-01-21T12:03:07.513Z,4.1
2018-01-21T12:04:07.534Z,4.09
2018-01-21T12:05:07.517Z,4.11
2018-01-21T12:06:07.633Z,4.1
2018-01-21T12:07:08.308Z,4.09
2018-01-21T12:08:08.140Z,4.1
2018-01-21T12:09:07.520Z,4.12
2018-01-21T12:10:07.541Z,4.12
2018-01-21T12:11:07.623Z,4.13
2018-01-21T12:12:08.153Z,4.12
2018-01-21T12:13:08.220Z,4.16
2018-01-21T12:14:07.510Z,4.14
2018-01-21T12:15:07.637Z,4.15
2018-01-21T12:16:07.488Z,4.16
2018-01-21T12:17:07.504Z,4.16
2018-01-21T12:18:07.550Z,4.18
2018-01-21T12:19:08.778Z,4.18
2018-01-21T12:20:07.558Z,4.18
2018-01-21T12:21:09.706Z,4.17
2018-01-21T12:22:08.202Z,4.16
2018-01-21T12:23:07.505Z,4.15
2018-01-21T12:24:07.524Z,4.16
2018-01-21T12:25:07.543Z,4.17
2018-01-21T12:26:07.890Z,4.17
2018-01-21T12:27:07.528Z,4.17
2018-01-21T12:28:07.494Z,4.17
2018-01-21T12:29:08.490Z,4.16
2018-01-21T12:30:07.584Z,4.15
2018-01-21T12:31:07.624Z,4.15
2018-01-21T12:32:07.513Z,4.14
2018-01-21T12:33:08.150Z,4.15
2018-01-21T12:34:07.513Z,4.16
2018-01-21T12:35:07.495Z,4.16
2018-01-21T12:36:07.516Z,4.16
2018-01-21T12:37:07.736Z,4.16
2018-01-21T12:38:07.600Z,4.17
2018-01-21T12:39:07.633Z,4.18
2018-01-21T12:40:07.622Z,4.18
2018-01-21T12:41:07.490Z,4.18
2018-01-21T12:42:08.091Z,4.17
2018-01-21T12:43:07.530Z,4.2
2018-01-21T12:44:07.530Z,4.19
2018-01-21T12:45:07.622Z,4.2
2018-01-21T12:46:08.157Z,4.18
2018-01-21T12:47:08.281Z,4.16
2018-01-21T12:48:07.576Z,4.14
2018-01-21T12:49:07.568Z,4.13
2018-01-21T12:50:07.508Z,4.12
2018-01-21T12:51:07.494Z,4.11
2018-01-21T12:52:07.525Z,4.1
2018-01-21T12:53:08.021Z,4.11
2018-01-21T12:54:08.092Z,4.1
2018-01-21T12:55:07.526Z,4.12
2018-01-21T12:56:07.531Z,4.11
2018-01-21T12:57:07.524Z,4.12
2018-01-21T12:58:07.546Z,4.12
2018-01-21T12:59:08.512Z,4.12
2018-01-21T13:00:07.501Z,4.12
2018-01-21T13:01:07.568Z,4.1
2018-01-21T13:02:09.152Z,4.11
2018-01-21T13:03:07.688Z,4.11
2018-01-21T13:04:07.501Z,4.11
2018-01-21T13:05:07.714Z,4.11
2018-01-21T13:06:07.549Z,4.11
2018-01-21T13:07:07.523Z,4.09
2018-01-21T13:08:07.612Z,4.09
2018-01-21T13:09:07.500Z,4.07
2018-01-21T13:10:07.649Z,4.04
2018-01-21T13:11:08.073Z,4.01
2018-01-21T13:12:07.606Z,3.91
2018-01-21T13:13:08.049Z,3.87
2018-01-21T13:14:08.384Z,3.85
2018-01-21T13:15:08.479Z,3.84
2018-01-21T13:16:07.585Z,3.82
2018-01-21T13:17:07.552Z,3.79
2018-01-21T13:18:07.498Z,3.79
2018-01-21T13:19:07.560Z,3.78
2018-01-21T13:20:07.556Z,3.74
2018-01-21T13:21:07.563Z,3.74
2018-01-21T13:22:07.525Z,3.74
2018-01-21T13:23:08.658Z,3.74
2018-01-21T13:24:07.608Z,3.74
2018-01-21T13:25:07.529Z,3.74
2018-01-21T13:26:07.557Z,3.76
2018-01-21T13:27:07.636Z,3.78
2018-01-21T13:28:07.546Z,3.79
2018-01-21T13:29:07.520Z,3.79
2018-01-21T13:30:07.613Z,3.79
2018-01-21T13:31:07.521Z,3.8
2018-01-21T13:32:07.583Z,3.82
2018-01-21T13:33:07.628Z,3.84
2018-01-21T13:34:07.606Z,3.87
2018-01-21T13:35:08.931Z,3.87
2018-01-21T13:36:08.241Z,3.89
2018-01-21T13:37:07.702Z,3.89
2018-01-21T13:38:07.595Z,3.91
2018-01-21T13:39:07.596Z,3.92
2018-01-21T13:40:07.595Z,3.93
2018-01-21T13:41:07.601Z,3.95
2018-01-21T13:42:07.630Z,3.98
2018-01-21T13:43:07.720Z,3.97
2018-01-21T13:44:07.551Z,3.99
2018-01-21T13:45:07.634Z,4.01
2018-01-21T13:46:07.597Z,4.02
2018-01-21T13:47:07.646Z,4.03
2018-01-21T13:48:08.161Z,4.03
2018-01-21T13:49:07.602Z,4.04
2018-01-21T13:50:07.685Z,4.05
2018-01-21T13:51:07.603Z,4.07
2018-01-21T13:52:07.643Z,4.1
2018-01-21T13:53:08.237Z,4.11
2018-01-21T13:54:07.686Z,4.13
2018-01-21T13:55:07.616Z,4.13
2018-01-21T13:56:08.702Z,4.15
2018-01-21T13:57:07.594Z,4.15
2018-01-21T13:58:07.579Z,4.17
2018-01-21T13:59:07.789Z,4.19
2018-01-21T14:00:07.654Z,4.19
2018-01-21T14:01:08.354Z,4.22
2018-01-21T14:02:08.250Z,4.23
2018-01-21T14:03:08.252Z,4.23
2018-01-21T14:04:08.249Z,4.25
2018-01-21T14:05:08.253Z,4.27
2018-01-21T14:06:08.376Z,4.31
2018-01-21T14:07:08.267Z,4.33
2018-01-21T14:08:08.269Z,4.33